Buford, OH (45110)

12:55 PM EDT on April 28, 2015 (GMT -0400)
Hillsboro | | Change Station
CLOSE
Current Station
Personal Weather Station
Location: Hillsboro, OH
Elevation: 1102 ft
Nearby Weather Stations

Elev 1102 ft 39.21 °N, 83.60 °W | Updated 8 seconds ago

Clear
Clear
55.8 °F
Feels Like 55.8 °F
N
12.7
Wind Variable Wind from NE
Gusts 12.7 mph

Today
High -- | Low -- °F
--% Chance of Precip.
Yesterday
High -- | Low -- °F
Precip. -- in
6:40 AM 8:24 PM
Waxing Gibbous, 75% visible
Pressure 30.15 in
Visibility 10.0 miles
Clouds Few 3800 ft
Dew Point 26 °F
Humidity 31%
Rainfall 0.00 in
Snow Depth Not available.
UV 8 out of 12
Pollen 10.00 out of 12
Air Quality Not available.
Flu Activity Regional
METAR KILN 281554Z AUTO 03008KT 10SM FEW038 12/02 A3011 RMK AO2 SLP209 T01170017

More Conditions Fewer Conditions

Pressure 30.15 in
Visibility 10.0 miles
Clouds Few 3800 ft
Dew Point 26 °F
Humidity 31%
Rainfall 0.00 in
Snow Depth Not available.
UV 8 out of 12
Pollen 10.00 out of 12
Air Quality Not available.
Flu Activity Regional
METAR KILN 281554Z AUTO 03008KT 10SM FEW038 12/02 A3011 RMK AO2 SLP209 T01170017

More Conditions Fewer Conditions

10-Day Weather Forecast

Almanac

Astronomy

Apr. 28, 2015 Rise Set
Actual Time
Civil Twilight
Nautical Twilight
Astronomical Twilight
Moon
Length of Visible Light
Length of Day
Tomorrow will be .
, % of the Moon is Illuminated

Today's Extremes

State Highs State Lows

Community

WunderPhotos

Upload Photos

1,817,699 photos uploaded!

WunderBlogs® & News

Nearby

Air Quality

  Air Quality AQ Index Pollutant
Not available.

Snow Depth

Station Depth Elevation

Earthquake Activity

City Distance Mag. Time & Date
Minimum magnitude displayed is 2.5.

Coastal Water Temperatures

Place Temperature

Stations

Nearby Weather Stations

Station Location Temp. Windchill Dew Point Humidity Wind Precip. Elev Updated Type